createdAt,value
2022-11-10T00:00:06.675Z,57.36
2022-11-10T00:01:06.720Z,57.04
2022-11-10T00:02:06.661Z,57.20
2022-11-10T00:03:06.629Z,57.52
2022-11-10T00:04:06.694Z,60.10
2022-11-10T00:05:06.637Z,59.46
2022-11-10T00:06:06.619Z,60.10
2022-11-10T00:07:06.772Z,62.36
2022-11-10T00:08:06.664Z,57.69
2022-11-10T00:09:06.599Z,57.52
2022-11-10T00:10:06.583Z,59.30
2022-11-10T00:11:06.599Z,59.14
2022-11-10T00:12:06.670Z,59.30
2022-11-10T00:13:06.561Z,58.33
2022-11-10T00:14:06.581Z,63.00
2022-11-10T00:15:06.574Z,61.39
2022-11-10T00:16:06.547Z,58.17
2022-11-10T00:17:06.535Z,57.69
2022-11-10T00:18:06.570Z,58.17
2022-11-10T00:19:06.530Z,58.17
2022-11-10T00:20:06.525Z,59.14
2022-11-10T00:21:06.541Z,59.62
2022-11-10T00:22:06.505Z,58.17
2022-11-10T00:23:06.522Z,60.59
2022-11-10T00:24:06.492Z,58.65
2022-11-10T00:25:06.498Z,59.94
2022-11-10T00:26:06.477Z,60.59
2022-11-10T00:27:06.503Z,59.62
2022-11-10T00:28:06.475Z,58.81
2022-11-10T00:29:06.497Z,60.75
2022-11-10T00:30:06.472Z,60.26
2022-11-10T00:31:06.467Z,59.62
2022-11-10T00:32:06.456Z,59.94
2022-11-10T00:33:06.441Z,59.94
2022-11-10T00:34:06.567Z,58.17
2022-11-10T00:35:06.451Z,58.65
2022-11-10T00:36:06.419Z,61.55
2022-11-10T00:37:06.433Z,60.10
2022-11-10T00:38:06.423Z,58.97
2022-11-10T00:39:06.411Z,58.65
2022-11-10T00:40:06.416Z,62.36
2022-11-10T00:41:06.381Z,62.68
2022-11-10T00:42:06.375Z,59.62
2022-11-10T00:43:06.402Z,58.49
2022-11-10T00:44:06.387Z,58.01
2022-11-10T00:45:06.392Z,58.01
2022-11-10T00:46:06.369Z,58.33
2022-11-10T00:47:06.354Z,58.33
2022-11-10T00:48:06.349Z,59.30
2022-11-10T00:49:06.334Z,59.78
2022-11-10T00:50:06.350Z,59.30
2022-11-10T00:51:06.338Z,58.33
2022-11-10T00:52:06.325Z,58.01
2022-11-10T00:53:06.322Z,57.69
2022-11-10T00:54:06.321Z,57.85
2022-11-10T00:55:06.320Z,59.62
2022-11-10T00:56:06.332Z,58.33
2022-11-10T00:57:06.322Z,59.14
2022-11-10T00:58:06.307Z,58.33
2022-11-10T00:59:06.289Z,58.49
2022-11-10T01:00:06.273Z,59.14
2022-11-10T01:01:06.296Z,60.10
2022-11-10T01:02:06.379Z,59.30
2022-11-10T01:03:06.260Z,58.49
2022-11-10T01:04:06.260Z,59.46
2022-11-10T01:05:06.254Z,59.62
2022-11-10T01:06:06.278Z,59.62
2022-11-10T01:07:06.279Z,58.65
2022-11-10T01:08:06.244Z,58.33
2022-11-10T01:09:06.225Z,60.59
2022-11-10T01:10:06.210Z,59.30
2022-11-10T01:11:06.225Z,58.01
2022-11-10T01:12:06.204Z,57.85
2022-11-10T01:13:06.235Z,57.52
2022-11-10T01:14:06.206Z,58.01
2022-11-10T01:15:06.199Z,58.01
2022-11-10T01:16:06.183Z,58.81
2022-11-10T01:17:06.184Z,61.23
2022-11-10T01:18:06.308Z,61.07
2022-11-10T01:19:06.171Z,58.01
2022-11-10T01:20:06.162Z,58.81
2022-11-10T01:21:06.158Z,59.78
2022-11-10T01:22:06.166Z,59.62
2022-11-10T01:23:06.149Z,58.81
2022-11-10T01:24:06.172Z,57.69
2022-11-10T01:25:06.148Z,57.85
2022-11-10T01:26:06.112Z,58.01
2022-11-10T01:27:06.132Z,58.49
2022-11-10T01:28:06.128Z,58.81
2022-11-10T01:29:06.133Z,60.10
2022-11-10T01:30:06.084Z,57.85
2022-11-10T01:31:06.111Z,57.52
2022-11-10T01:32:06.101Z,57.36
2022-11-10T01:33:06.110Z,57.52
2022-11-10T01:34:06.098Z,56.88
2022-11-10T01:35:06.114Z,57.04
2022-11-10T01:36:06.073Z,58.01
2022-11-10T01:37:06.061Z,59.94
2022-11-10T01:38:06.079Z,57.85
2022-11-10T01:39:06.079Z,58.17
2022-11-10T01:40:06.105Z,59.78
2022-11-10T01:41:06.033Z,58.65
2022-11-10T01:42:06.028Z,58.49
2022-11-10T01:43:06.025Z,58.65
2022-11-10T01:44:06.020Z,59.30
2022-11-10T01:45:06.016Z,63.16
2022-11-10T01:46:06.018Z,63.65
2022-11-10T01:47:06.016Z,58.65
2022-11-10T01:48:05.995Z,57.69
2022-11-10T01:49:05.986Z,57.85
2022-11-10T01:50:06.014Z,57.69
2022-11-10T01:51:06.200Z,58.49
2022-11-10T01:52:05.998Z,59.14
2022-11-10T01:53:05.975Z,58.01
2022-11-10T01:54:05.984Z,58.01
2022-11-10T01:55:05.951Z,59.94
2022-11-10T01:56:05.957Z,60.42
2022-11-10T01:57:06.084Z,58.01
2022-11-10T01:58:05.943Z,59.14
2022-11-10T01:59:05.925Z,59.94
2022-11-10T02:00:05.926Z,59.14
2022-11-10T02:01:05.930Z,59.30
2022-11-10T02:02:05.992Z,60.59
2022-11-10T02:03:05.898Z,60.26
2022-11-10T02:04:05.904Z,59.46
2022-11-10T02:05:05.872Z,59.62
2022-11-10T02:06:05.883Z,60.42
2022-11-10T02:07:05.896Z,59.14
2022-11-10T02:08:05.914Z,61.39
2022-11-10T02:09:06.864Z,62.20
2022-11-10T02:10:05.875Z,62.36
2022-11-10T02:11:05.860Z,65.10
2022-11-10T02:12:05.877Z,61.71
2022-11-10T02:13:05.883Z,59.62
2022-11-10T02:14:05.836Z,59.14
2022-11-10T02:15:05.834Z,61.55
2022-11-10T02:16:05.811Z,60.91
2022-11-10T02:17:05.843Z,64.78
2022-11-10T02:18:05.851Z,61.39
2022-11-10T02:19:06.187Z,62.84
2022-11-10T02:20:05.794Z,61.39
2022-11-10T02:21:05.783Z,63.00
2022-11-10T02:22:05.797Z,63.81
2022-11-10T02:23:05.785Z,59.62
2022-11-10T02:24:05.816Z,60.10
2022-11-10T02:25:05.762Z,60.75
2022-11-10T02:26:05.769Z,63.65
2022-11-10T02:27:05.755Z,60.10
2022-11-10T02:28:05.751Z,60.59
2022-11-10T02:29:05.725Z,60.59
2022-11-10T02:30:05.753Z,59.14
2022-11-10T02:31:05.733Z,61.55
2022-11-10T02:32:05.731Z,59.30
2022-11-10T02:33:05.731Z,60.75
2022-11-10T02:34:05.723Z,66.39
2022-11-10T02:35:05.719Z,60.42
2022-11-10T02:36:05.700Z,59.14
2022-11-10T02:37:05.674Z,60.42
2022-11-10T02:38:05.717Z,57.85
2022-11-10T02:39:05.696Z,57.85
2022-11-10T02:40:05.692Z,58.49
2022-11-10T02:41:05.691Z,59.14
2022-11-10T02:42:05.668Z,58.81
2022-11-10T02:43:05.666Z,58.81
2022-11-10T02:44:05.656Z,60.91
2022-11-10T02:45:05.651Z,59.14
2022-11-10T02:46:05.657Z,59.14
2022-11-10T02:47:05.654Z,58.65
2022-11-10T02:48:05.606Z,58.65
2022-11-10T02:49:05.652Z,59.14
2022-11-10T02:50:05.604Z,58.49
2022-11-10T02:51:05.617Z,58.65
2022-11-10T02:52:05.631Z,58.33
2022-11-10T02:53:05.587Z,57.85
2022-11-10T02:54:05.586Z,58.17
2022-11-10T02:55:05.576Z,58.49
2022-11-10T02:56:05.590Z,59.46
2022-11-10T02:57:05.672Z,58.49
2022-11-10T02:58:05.557Z,57.85
2022-11-10T02:59:05.561Z,59.62
2022-11-10T03:00:05.559Z,59.62
2022-11-10T03:01:05.624Z,59.94
2022-11-10T03:02:05.515Z,58.81
2022-11-10T03:03:05.644Z,58.49
2022-11-10T03:04:05.529Z,58.01
2022-11-10T03:05:05.523Z,58.17
2022-11-10T03:06:05.518Z,58.49
2022-11-10T03:07:05.534Z,61.07
2022-11-10T03:08:05.627Z,60.59
2022-11-10T03:09:05.498Z,59.30
2022-11-10T03:10:05.505Z,59.14
2022-11-10T03:11:05.481Z,60.91
2022-11-10T03:12:05.491Z,60.26
2022-11-10T03:13:05.468Z,58.97
2022-11-10T03:14:05.499Z,58.49
2022-11-10T03:15:05.465Z,60.59
2022-11-10T03:16:05.460Z,60.10
2022-11-10T03:17:05.458Z,59.46
2022-11-10T03:18:05.455Z,59.94
2022-11-10T03:19:05.548Z,60.75
2022-11-10T03:20:05.434Z,66.39
2022-11-10T03:21:05.423Z,60.91
2022-11-10T03:22:05.423Z,58.65
2022-11-10T03:23:05.407Z,58.33
2022-11-10T03:24:05.406Z,60.91
2022-11-10T03:25:05.429Z,60.42
2022-11-10T03:26:05.385Z,59.78
2022-11-10T03:27:05.394Z,59.94
2022-11-10T03:28:05.372Z,60.10
2022-11-10T03:29:05.379Z,60.91
2022-11-10T03:30:05.428Z,59.94
2022-11-10T03:31:05.384Z,59.62
2022-11-10T03:32:05.365Z,59.30
2022-11-10T03:33:05.366Z,59.62
2022-11-10T03:34:05.347Z,61.23
2022-11-10T03:35:05.336Z,60.26
2022-11-10T03:36:05.364Z,59.30
2022-11-10T03:37:05.320Z,59.14
2022-11-10T03:38:05.313Z,61.39
2022-11-10T03:39:05.306Z,61.23
2022-11-10T03:40:05.318Z,59.46
2022-11-10T03:41:19.209Z,58.49
2022-11-10T03:42:07.324Z,59.46
2022-11-10T03:43:05.288Z,60.59
2022-11-10T03:44:05.297Z,59.46
2022-11-10T03:45:05.288Z,60.59
2022-11-10T03:46:05.277Z,60.26
2022-11-10T03:47:05.369Z,62.20
2022-11-10T03:48:05.251Z,59.62
2022-11-10T03:49:05.242Z,59.14
2022-11-10T03:50:05.264Z,59.14
2022-11-10T03:51:05.244Z,58.65
2022-11-10T03:52:05.339Z,60.42
2022-11-10T03:53:05.248Z,60.59
2022-11-10T03:54:05.239Z,60.59
2022-11-10T03:55:05.223Z,61.07
2022-11-10T03:56:05.215Z,61.23
2022-11-10T03:57:05.197Z,59.30
2022-11-10T03:58:05.301Z,61.39
2022-11-10T03:59:05.221Z,61.55
2022-11-10T04:00:05.311Z,68.96
2022-11-10T04:01:05.179Z,60.91
2022-11-10T04:02:05.212Z,61.87
2022-11-10T04:03:05.188Z,60.59
2022-11-10T04:04:05.150Z,64.13
2022-11-10T04:05:05.139Z,63.00
2022-11-10T04:06:05.131Z,65.42
2022-11-10T04:07:05.343Z,61.39
2022-11-10T04:08:05.135Z,61.71
2022-11-10T04:09:05.126Z,63.97
2022-11-10T04:10:05.116Z,63.97
2022-11-10T04:11:05.099Z,61.87
2022-11-10T04:12:05.107Z,61.55
2022-11-10T04:13:05.087Z,63.33
2022-11-10T04:14:05.118Z,61.55
2022-11-10T04:15:05.087Z,60.91
2022-11-10T04:16:05.083Z,60.42
2022-11-10T04:17:05.095Z,60.42
2022-11-10T04:18:05.110Z,65.10
2022-11-10T04:19:05.073Z,63.16
2022-11-10T04:20:05.086Z,65.74
2022-11-10T04:21:05.046Z,60.42
2022-11-10T04:22:05.039Z,60.91
2022-11-10T04:23:05.038Z,60.10
2022-11-10T04:24:05.035Z,60.75
2022-11-10T04:25:05.159Z,63.00
2022-11-10T04:26:05.024Z,60.75
2022-11-10T04:27:05.025Z,62.68
2022-11-10T04:28:05.011Z,60.59
2022-11-10T04:29:04.983Z,69.13
2022-11-10T04:30:04.990Z,60.26
2022-11-10T04:31:05.006Z,60.59
2022-11-10T04:32:04.979Z,62.68
2022-11-10T04:33:04.985Z,64.45
2022-11-10T04:34:04.979Z,63.16
2022-11-10T04:35:04.978Z,65.42
2022-11-10T04:36:04.984Z,63.49
2022-11-10T04:37:04.943Z,69.29
2022-11-10T04:38:04.957Z,62.84
2022-11-10T04:39:04.948Z,63.65
2022-11-10T04:40:04.928Z,61.55
2022-11-10T04:41:04.931Z,66.23
2022-11-10T04:42:05.372Z,60.42
2022-11-10T04:43:04.925Z,61.39
2022-11-10T04:44:04.896Z,63.33
2022-11-10T04:45:04.909Z,60.26
2022-11-10T04:46:04.914Z,62.04
2022-11-10T04:47:10.576Z,61.55
2022-11-10T04:48:06.887Z,64.45
2022-11-10T04:49:04.870Z,63.16
2022-11-10T04:50:04.874Z,60.91
2022-11-10T04:51:04.871Z,61.23
2022-11-10T04:52:04.909Z,60.10
2022-11-10T04:53:04.886Z,59.94
2022-11-10T04:54:04.927Z,64.45
2022-11-10T04:55:04.877Z,63.16
2022-11-10T04:56:04.908Z,62.52
2022-11-10T04:57:04.827Z,62.84
2022-11-10T04:58:05.669Z,64.94
2022-11-10T04:59:04.817Z,62.84
2022-11-10T05:00:04.829Z,62.36
2022-11-10T05:01:04.842Z,66.87
2022-11-10T05:02:04.806Z,64.94
2022-11-10T05:03:04.795Z,68.16
2022-11-10T05:04:04.807Z,69.45
2022-11-10T05:05:04.808Z,64.94
2022-11-10T05:06:04.763Z,62.52
2022-11-10T05:07:04.809Z,72.19
2022-11-10T05:08:04.777Z,72.51
2022-11-10T05:09:04.751Z,64.61
2022-11-10T05:10:04.747Z,67.84
2022-11-10T05:11:04.755Z,66.06
2022-11-10T05:12:04.749Z,72.51
2022-11-10T05:13:04.732Z,70.58
2022-11-10T05:14:04.732Z,65.90
2022-11-10T05:15:04.735Z,64.94
2022-11-10T05:16:04.687Z,63.65
2022-11-10T05:17:04.718Z,64.29
2022-11-10T05:18:04.713Z,62.68
2022-11-10T05:19:04.689Z,62.52
2022-11-10T05:20:04.687Z,63.16
2022-11-10T05:21:04.698Z,66.87
2022-11-10T05:22:04.677Z,68.48
2022-11-10T05:23:04.686Z,69.29
2022-11-10T05:24:04.662Z,69.77
2022-11-10T05:25:04.665Z,66.39
2022-11-10T05:26:04.660Z,67.19
2022-11-10T05:27:04.681Z,68.16
2022-11-10T05:28:04.656Z,65.74
2022-11-10T05:29:04.619Z,67.51
2022-11-10T05:30:04.629Z,72.03
2022-11-10T05:31:04.616Z,68.80
2022-11-10T05:32:04.612Z,69.93
2022-11-10T05:33:04.614Z,64.45
2022-11-10T05:34:04.604Z,65.10
2022-11-10T05:35:04.589Z,68.64
2022-11-10T05:36:04.579Z,65.26
2022-11-10T05:37:04.588Z,72.83
2022-11-10T05:38:04.596Z,66.87
2022-11-10T05:39:04.578Z,71.70
2022-11-10T05:40:04.557Z,66.55
2022-11-10T05:41:04.557Z,69.45
2022-11-10T05:42:04.566Z,65.90
2022-11-10T05:43:04.556Z,66.87
2022-11-10T05:44:04.540Z,65.58
2022-11-10T05:45:04.531Z,70.90
2022-11-10T05:46:04.538Z,65.74
2022-11-10T05:47:04.574Z,69.45
2022-11-10T05:48:04.512Z,72.19
2022-11-10T05:49:04.508Z,67.51
2022-11-10T05:50:04.500Z,65.90
2022-11-10T05:51:04.497Z,69.61
2022-11-10T05:52:04.498Z,67.35
2022-11-10T05:53:04.503Z,67.19
2022-11-10T05:54:04.508Z,68.64
2022-11-10T05:55:04.476Z,69.93
2022-11-10T05:56:04.465Z,66.87
2022-11-10T05:57:04.474Z,66.23
2022-11-10T05:58:04.467Z,68.80
2022-11-10T05:59:07.233Z,65.10
2022-11-10T06:00:04.464Z,65.42
2022-11-10T06:01:04.441Z,72.03
2022-11-10T06:02:04.451Z,75.73
2022-11-10T06:03:04.502Z,72.19
2022-11-10T06:04:04.491Z,74.77
2022-11-10T06:05:04.410Z,67.19
2022-11-10T06:06:05.355Z,69.61
2022-11-10T06:07:04.589Z,67.51
2022-11-10T06:08:04.404Z,69.13
2022-11-10T06:09:05.367Z,69.13
2022-11-10T06:10:04.383Z,68.00
2022-11-10T06:11:04.379Z,67.51
2022-11-10T06:12:04.388Z,67.03
2022-11-10T06:13:04.365Z,76.05
2022-11-10T06:14:04.345Z,77.50
2022-11-10T06:15:04.351Z,73.80
2022-11-10T06:16:04.316Z,66.23
2022-11-10T06:17:04.352Z,67.03
2022-11-10T06:18:04.348Z,65.42
2022-11-10T06:19:04.314Z,70.09
2022-11-10T06:20:04.322Z,72.83
2022-11-10T06:21:04.305Z,70.74
2022-11-10T06:22:07.657Z,73.15
2022-11-10T06:23:05.408Z,74.60
2022-11-10T06:24:04.356Z,71.06
2022-11-10T06:25:04.275Z,72.19
2022-11-10T06:26:04.311Z,69.77
2022-11-10T06:27:04.279Z,73.64
2022-11-10T06:28:04.275Z,76.05
2022-11-10T06:29:04.283Z,70.25
2022-11-10T06:30:04.250Z,75.89
2022-11-10T06:31:04.242Z,71.38
2022-11-10T06:32:04.258Z,71.06
2022-11-10T06:33:04.247Z,73.32
2022-11-10T06:34:04.219Z,69.77
2022-11-10T06:35:04.220Z,73.96
2022-11-10T06:36:04.223Z,81.86
2022-11-10T06:37:04.228Z,77.99
2022-11-10T06:38:04.220Z,73.96
2022-11-10T06:39:04.212Z,68.00
2022-11-10T06:40:04.204Z,69.29
2022-11-10T06:41:04.200Z,72.19
2022-11-10T06:42:04.202Z,71.54
2022-11-10T06:43:04.177Z,71.70
2022-11-10T06:44:04.155Z,76.54
2022-11-10T06:45:04.170Z,74.12
2022-11-10T06:46:04.150Z,65.42
2022-11-10T06:47:04.125Z,66.71
2022-11-10T06:48:05.263Z,71.70
2022-11-10T06:49:04.153Z,64.45
2022-11-10T06:50:04.121Z,72.67
2022-11-10T06:51:04.119Z,67.03
2022-11-10T06:52:04.122Z,65.26
2022-11-10T06:53:04.113Z,70.58
2022-11-10T06:54:04.239Z,66.55
2022-11-10T06:55:04.105Z,64.94
2022-11-10T06:56:04.088Z,73.96
2022-11-10T06:57:04.102Z,64.94
2022-11-10T06:58:04.090Z,68.80
2022-11-10T06:59:04.082Z,70.74
2022-11-10T07:00:04.068Z,70.58
2022-11-10T07:01:04.109Z,69.61
2022-11-10T07:02:04.065Z,66.87
2022-11-10T07:03:04.072Z,68.32
2022-11-10T07:04:19.162Z,70.09
2022-11-10T07:05:06.149Z,70.90
2022-11-10T07:06:04.010Z,68.80
2022-11-10T07:07:04.049Z,68.16
2022-11-10T07:08:03.995Z,69.13
2022-11-10T07:09:04.006Z,70.90
2022-11-10T07:10:06.963Z,69.29
2022-11-10T07:11:05.035Z,72.99
2022-11-10T07:12:03.978Z,69.93
2022-11-10T07:13:03.975Z,70.58
2022-11-10T07:14:03.980Z,64.61
2022-11-10T07:15:03.983Z,65.26
2022-11-10T07:16:03.982Z,68.80
2022-11-10T07:17:04.006Z,69.93
2022-11-10T07:18:03.947Z,66.71
2022-11-10T07:19:03.935Z,65.74
2022-11-10T07:20:04.939Z,73.15
2022-11-10T07:21:03.977Z,69.45
2022-11-10T07:22:09.671Z,67.51
2022-11-10T07:23:05.917Z,73.96
2022-11-10T07:24:03.911Z,68.16
2022-11-10T07:25:03.903Z,67.51
2022-11-10T07:26:03.909Z,71.38
2022-11-10T07:27:03.908Z,66.71
2022-11-10T07:28:03.912Z,67.51
2022-11-10T07:29:03.894Z,69.13
2022-11-10T07:30:03.869Z,73.80
2022-11-10T07:31:03.873Z,69.45
2022-11-10T07:32:03.877Z,73.15
2022-11-10T07:33:03.862Z,69.61
2022-11-10T07:34:03.838Z,68.96
2022-11-10T07:35:03.847Z,69.45
2022-11-10T07:36:03.849Z,69.93
2022-11-10T07:37:03.832Z,68.48
2022-11-10T07:38:03.827Z,72.51
2022-11-10T07:39:04.696Z,65.90
2022-11-10T07:40:03.796Z,67.19
2022-11-10T07:41:03.847Z,69.93
2022-11-10T07:42:03.820Z,74.77
2022-11-10T07:43:03.794Z,70.25
2022-11-10T07:44:03.791Z,66.87
2022-11-10T07:45:03.811Z,71.38
2022-11-10T07:46:03.786Z,69.45
2022-11-10T07:47:03.780Z,65.42
2022-11-10T07:48:03.761Z,66.55
2022-11-10T07:49:03.756Z,66.39
2022-11-10T07:50:03.767Z,65.58
2022-11-10T07:51:03.762Z,75.41
2022-11-10T07:52:03.746Z,68.16
2022-11-10T07:53:04.736Z,64.45
2022-11-10T07:54:03.718Z,64.94
2022-11-10T07:55:03.717Z,72.03
2022-11-10T07:56:03.716Z,70.90
2022-11-10T07:57:04.737Z,68.96
2022-11-10T07:58:03.719Z,65.42
2022-11-10T07:59:03.689Z,66.55
2022-11-10T08:00:04.690Z,68.32
2022-11-10T08:01:03.688Z,63.16
2022-11-10T08:02:03.761Z,74.77
2022-11-10T08:03:03.688Z,66.39
2022-11-10T08:04:03.662Z,63.97
2022-11-10T08:05:03.664Z,66.71
2022-11-10T08:06:03.675Z,69.13
2022-11-10T08:07:03.720Z,67.51
2022-11-10T08:08:03.642Z,62.68
2022-11-10T08:09:03.634Z,62.20
2022-11-10T08:10:03.641Z,67.51
2022-11-10T08:11:03.641Z,68.96
2022-11-10T08:12:03.634Z,66.39
2022-11-10T08:13:03.600Z,69.13
2022-11-10T08:14:03.609Z,64.94
2022-11-10T08:15:03.597Z,69.61
2022-11-10T08:16:03.607Z,65.74
2022-11-10T08:17:03.617Z,59.78
2022-11-10T08:18:03.597Z,61.07
2022-11-10T08:19:03.581Z,63.33
2022-11-10T08:20:03.563Z,63.16
2022-11-10T08:21:03.581Z,60.26
2022-11-10T08:22:03.586Z,60.91
2022-11-10T08:23:03.556Z,58.65
2022-11-10T08:24:03.545Z,61.39
2022-11-10T08:25:03.542Z,63.97
2022-11-10T08:26:03.558Z,62.52
2022-11-10T08:27:03.554Z,60.26
2022-11-10T08:28:03.521Z,60.26
2022-11-10T08:29:03.543Z,64.61
2022-11-10T08:30:03.514Z,61.55
2022-11-10T08:31:05.741Z,61.71
2022-11-10T08:32:03.506Z,72.35
2022-11-10T08:33:03.496Z,63.00
2022-11-10T08:34:03.513Z,61.71
2022-11-10T08:35:03.478Z,63.49
2022-11-10T08:36:03.489Z,72.03
2022-11-10T08:37:03.486Z,64.61
2022-11-10T08:38:08.959Z,67.19
2022-11-10T08:39:05.461Z,63.81
2022-11-10T08:40:03.453Z,65.26
2022-11-10T08:41:03.482Z,61.55
2022-11-10T08:42:03.476Z,62.84
2022-11-10T08:43:03.443Z,61.23
2022-11-10T08:44:04.123Z,61.71
2022-11-10T08:45:03.450Z,60.26
2022-11-10T08:46:03.439Z,59.14
2022-11-10T08:47:03.423Z,59.30
2022-11-10T08:48:03.418Z,73.32
2022-11-10T08:49:03.390Z,64.78
2022-11-10T08:50:03.379Z,68.00
2022-11-10T08:51:03.394Z,68.16
2022-11-10T08:52:03.391Z,60.26
2022-11-10T08:53:03.364Z,67.68
2022-11-10T08:54:03.377Z,60.10
2022-11-10T08:55:03.358Z,61.39
2022-11-10T08:56:03.391Z,72.19
2022-11-10T08:57:03.404Z,55.75
2022-11-10T08:58:03.336Z,55.59
2022-11-10T08:59:03.342Z,62.20
2022-11-10T09:00:03.324Z,60.59
2022-11-10T09:01:03.335Z,59.30
2022-11-10T09:02:03.327Z,58.01
2022-11-10T09:03:03.315Z,58.33
2022-11-10T09:04:03.317Z,58.65
2022-11-10T09:05:03.459Z,72.03
2022-11-10T09:06:03.302Z,58.17
2022-11-10T09:07:03.304Z,68.32
2022-11-10T09:08:03.297Z,65.90
2022-11-10T09:09:03.346Z,58.81
2022-11-10T09:10:07.615Z,72.19
2022-11-10T09:11:04.381Z,60.26
2022-11-10T09:12:03.255Z,68.80
2022-11-10T09:13:03.269Z,60.10
2022-11-10T09:14:03.285Z,59.30
2022-11-10T09:15:03.263Z,58.65
2022-11-10T09:16:03.254Z,58.97
2022-11-10T09:17:03.333Z,60.75
2022-11-10T09:18:03.242Z,59.46
2022-11-10T09:19:03.234Z,57.36
2022-11-10T09:20:03.317Z,59.46
2022-11-10T09:21:03.231Z,63.33
2022-11-10T09:22:03.346Z,63.33
2022-11-10T09:23:03.193Z,59.94
2022-11-10T09:24:03.192Z,63.97
2022-11-10T09:25:03.178Z,59.46
2022-11-10T09:26:03.170Z,69.13
2022-11-10T09:27:03.176Z,65.10
2022-11-10T09:28:03.189Z,57.52
2022-11-10T09:29:03.164Z,59.46
2022-11-10T09:30:03.159Z,58.65
2022-11-10T09:31:03.171Z,68.00
2022-11-10T09:32:03.175Z,57.85
2022-11-10T09:33:03.188Z,58.17
2022-11-10T09:34:03.137Z,62.52
2022-11-10T09:35:03.134Z,61.23
2022-11-10T09:36:03.126Z,60.91
2022-11-10T09:37:03.117Z,59.94
2022-11-10T09:38:03.131Z,65.10
2022-11-10T09:39:03.216Z,63.16
2022-11-10T09:40:03.104Z,67.51
2022-11-10T09:41:03.147Z,63.97
2022-11-10T09:42:03.090Z,62.68
2022-11-10T09:43:03.084Z,61.71
2022-11-10T09:44:03.131Z,63.97
2022-11-10T09:45:03.075Z,70.74
2022-11-10T09:46:03.070Z,66.23
2022-11-10T09:47:03.053Z,60.75
2022-11-10T09:48:03.051Z,60.26
2022-11-10T09:49:03.046Z,59.62
2022-11-10T09:50:03.058Z,61.39
2022-11-10T09:51:03.040Z,58.81
2022-11-10T09:52:03.031Z,61.55
2022-11-10T09:53:03.055Z,68.32
2022-11-10T09:54:03.032Z,64.29
2022-11-10T09:55:03.027Z,61.23
2022-11-10T09:56:02.994Z,62.52
2022-11-10T09:57:03.000Z,59.78
2022-11-10T09:58:03.014Z,59.62
2022-11-10T09:59:02.970Z,59.62
2022-11-10T10:00:02.980Z,61.55
2022-11-10T10:01:03.036Z,67.19
2022-11-10T10:02:02.962Z,64.29
2022-11-10T10:03:02.966Z,64.29
2022-11-10T10:04:02.952Z,62.04
2022-11-10T10:05:02.937Z,63.97
2022-11-10T10:06:03.134Z,60.42
2022-11-10T10:07:11.268Z,64.61
2022-11-10T10:08:04.940Z,62.68
2022-11-10T10:09:02.932Z,64.61
2022-11-10T10:10:02.959Z,60.10
2022-11-10T10:11:02.920Z,59.62
2022-11-10T10:12:03.053Z,64.29
2022-11-10T10:13:02.900Z,61.87
2022-11-10T10:14:02.908Z,64.94
2022-11-10T10:15:02.903Z,67.35
2022-11-10T10:16:02.889Z,67.68
2022-11-10T10:17:02.912Z,63.49
2022-11-10T10:18:02.887Z,63.81
2022-11-10T10:19:02.866Z,62.52
2022-11-10T10:20:02.874Z,68.48
2022-11-10T10:21:02.864Z,66.87
2022-11-10T10:22:02.854Z,62.68
2022-11-10T10:23:02.895Z,57.04
2022-11-10T10:24:10.240Z,59.78
2022-11-10T10:25:04.916Z,60.26
2022-11-10T10:26:02.848Z,63.16
2022-11-10T10:27:02.818Z,59.46
2022-11-10T10:28:02.855Z,58.81
2022-11-10T10:29:02.807Z,59.14
2022-11-10T10:30:02.808Z,57.69
2022-11-10T10:31:02.795Z,62.36
2022-11-10T10:32:02.806Z,62.04
2022-11-10T10:33:02.787Z,65.90
2022-11-10T10:34:02.897Z,61.07
2022-11-10T10:35:02.772Z,56.72
2022-11-10T10:36:02.763Z,61.71
2022-11-10T10:37:03.778Z,61.07
2022-11-10T10:38:03.764Z,63.16
2022-11-10T10:39:02.777Z,58.81
2022-11-10T10:40:02.867Z,58.49
2022-11-10T10:41:02.774Z,63.00
2022-11-10T10:42:02.727Z,56.56
2022-11-10T10:43:02.744Z,56.56
2022-11-10T10:44:02.758Z,61.55
2022-11-10T10:45:02.852Z,57.52
2022-11-10T10:46:02.717Z,57.69
2022-11-10T10:47:02.706Z,58.97
2022-11-10T10:48:02.703Z,57.52
2022-11-10T10:49:26.730Z,65.42
2022-11-10T10:50:02.723Z,64.45
2022-11-10T10:51:02.682Z,68.96
2022-11-10T10:52:02.653Z,58.65
2022-11-10T10:53:02.666Z,67.03
2022-11-10T10:54:02.662Z,60.42
2022-11-10T10:55:02.643Z,56.88
2022-11-10T10:56:02.764Z,60.75
2022-11-10T10:57:02.641Z,60.59
2022-11-10T10:58:02.652Z,58.01
2022-11-10T10:59:02.633Z,63.81
2022-11-10T11:00:02.633Z,59.94
2022-11-10T11:01:02.687Z,59.14
2022-11-10T11:02:02.605Z,56.24
2022-11-10T11:03:04.631Z,67.51
2022-11-10T11:04:02.601Z,60.59
2022-11-10T11:05:02.617Z,67.84
2022-11-10T11:06:02.614Z,71.87
2022-11-10T11:07:02.660Z,67.51
2022-11-10T11:08:02.571Z,62.68
2022-11-10T11:09:02.576Z,60.91
2022-11-10T11:10:02.593Z,61.07
2022-11-10T11:11:02.563Z,66.23
2022-11-10T11:12:02.784Z,67.03
2022-11-10T11:13:02.559Z,63.49
2022-11-10T11:14:02.552Z,60.26
2022-11-10T11:15:02.567Z,71.87
2022-11-10T11:16:02.533Z,63.49
2022-11-10T11:17:02.580Z,59.46
2022-11-10T11:18:02.657Z,62.68
2022-11-10T11:19:02.506Z,60.26
2022-11-10T11:20:02.509Z,64.78
2022-11-10T11:21:02.510Z,59.62
2022-11-10T11:22:02.525Z,60.75
2022-11-10T11:23:02.531Z,62.84
2022-11-10T11:24:02.507Z,65.10
2022-11-10T11:25:02.465Z,59.14
2022-11-10T11:26:02.473Z,60.26
2022-11-10T11:27:02.478Z,66.23
2022-11-10T11:28:02.491Z,60.75
2022-11-10T11:29:02.492Z,61.07
2022-11-10T11:30:02.435Z,60.59
2022-11-10T11:31:02.436Z,66.06
2022-11-10T11:32:02.430Z,64.45
2022-11-10T11:33:02.444Z,67.03
2022-11-10T11:34:02.559Z,65.10
2022-11-10T11:35:02.423Z,59.46
2022-11-10T11:36:02.415Z,59.62
2022-11-10T11:37:06.899Z,59.14
2022-11-10T11:38:03.401Z,64.13
2022-11-10T11:39:02.402Z,58.17
2022-11-10T11:40:02.418Z,59.30
2022-11-10T11:41:02.387Z,63.33
2022-11-10T11:42:02.385Z,57.52
2022-11-10T11:43:02.375Z,61.23
2022-11-10T11:44:02.356Z,68.80
2022-11-10T11:45:02.455Z,61.87
2022-11-10T11:46:02.346Z,68.32
2022-11-10T11:47:02.351Z,60.42
2022-11-10T11:48:02.355Z,59.78
2022-11-10T11:49:02.332Z,64.61
2022-11-10T11:50:02.340Z,64.29
2022-11-10T11:51:02.360Z,64.78
2022-11-10T11:52:02.399Z,62.36
2022-11-10T11:53:02.321Z,59.46
2022-11-10T11:54:02.363Z,62.68
2022-11-10T11:55:02.306Z,61.07
2022-11-10T11:56:02.383Z,62.20
2022-11-10T11:57:02.287Z,63.49
2022-11-10T11:58:02.272Z,69.29
2022-11-10T11:59:02.277Z,76.38
2022-11-10T12:00:36.360Z,60.91
2022-11-10T12:01:02.263Z,59.78
2022-11-10T12:02:02.450Z,65.74
2022-11-10T12:03:02.299Z,60.75
2022-11-10T12:04:02.240Z,65.42
2022-11-10T12:05:02.256Z,60.26
2022-11-10T12:06:02.235Z,64.45
2022-11-10T12:07:02.285Z,58.33
2022-11-10T12:08:02.212Z,61.07
2022-11-10T12:09:02.210Z,60.26
2022-11-10T12:10:02.198Z,61.07
2022-11-10T12:11:02.207Z,63.81
2022-11-10T12:12:02.211Z,59.14
2022-11-10T12:13:02.298Z,62.84
2022-11-10T12:14:02.206Z,61.87
2022-11-10T12:15:02.186Z,66.39
2022-11-10T12:16:02.173Z,71.38
2022-11-10T12:17:36.891Z,70.25
2022-11-10T12:18:02.292Z,71.06
2022-11-10T12:19:02.180Z,67.51
2022-11-10T12:20:02.183Z,69.13
2022-11-10T12:21:02.145Z,67.51
2022-11-10T12:22:02.146Z,68.96
2022-11-10T12:23:02.138Z,68.00
2022-11-10T12:24:07.358Z,66.23
2022-11-10T12:25:03.137Z,60.59
2022-11-10T12:26:02.159Z,72.35
2022-11-10T12:27:02.120Z,66.39
2022-11-10T12:28:02.109Z,61.07
2022-11-10T12:29:02.155Z,66.55
2022-11-10T12:30:02.108Z,58.01
2022-11-10T12:31:02.321Z,58.81
2022-11-10T12:32:02.077Z,63.16
2022-11-10T12:33:02.069Z,66.55
2022-11-10T12:34:02.065Z,69.93
2022-11-10T12:35:03.210Z,71.38
2022-11-10T12:36:02.397Z,72.19
2022-11-10T12:37:02.046Z,67.03
2022-11-10T12:38:02.054Z,62.04
2022-11-10T12:39:02.116Z,73.32
2022-11-10T12:40:02.074Z,76.22
2022-11-10T12:41:20.955Z,58.97
2022-11-10T12:42:02.018Z,69.13
2022-11-10T12:43:02.020Z,70.58
2022-11-10T12:44:02.009Z,65.74
2022-11-10T12:45:01.987Z,71.70
2022-11-10T12:46:02.099Z,68.00
2022-11-10T12:47:01.985Z,72.03
2022-11-10T12:48:01.982Z,60.42
2022-11-10T12:49:02.000Z,62.68
2022-11-10T12:50:02.012Z,81.69
2022-11-10T12:51:01.963Z,85.88
2022-11-10T12:52:02.072Z,63.65